Time;durP1;ratioP1;P1;durP2;ratioP2;P2;SDS_P1;SDS_P2;PMS_P1;PMS_P2;Temp;Humidity;BMP_temperature;BMP_pressure;BME280_temperature;BME280_humidity;BME280_pressure;Samples;Min_cycle;Max_cycle;Signal;HPM_P1;HPM_P2
2023/04/29 00:01:12;;;;;;;33.13;17.05;;;9.80;99.90;;;;;;5044833;28;20180;-37
2023/04/29 00:03:38;;;;;;;27.63;15.90;;;9.70;99.90;;;;;;5037461;28;20095;-36
2023/04/29 00:06:03;;;;;;;28.70;15.80;;;9.70;99.90;;;;;;5030741;28;20589;-36
2023/04/29 00:08:29;;;;;;;22.80;14.48;;;9.70;99.90;;;;;;5035793;28;20402;-36
2023/04/29 00:10:55;;;;;;;26.55;15.20;;;9.70;99.90;;;;;;5040461;28;20115;-36
2023/04/29 00:13:20;;;;;;;23.77;13.48;;;9.70;99.90;;;;;;5038254;28;20053;-37
2023/04/29 00:15:46;;;;;;;26.27;14.25;;;9.70;99.90;;;;;;5030000;28;20052;-36
2023/04/29 00:18:12;;;;;;;22.10;13.10;;;9.70;99.90;;;;;;5037340;28;20046;-36
2023/04/29 00:20:38;;;;;;;24.08;13.55;;;9.70;99.90;;;;;;5029709;28;20080;-37
2023/04/29 00:23:05;;;;;;;28.40;13.45;;;9.70;99.90;;;;;;5029515;28;20495;-36
2023/04/29 00:25:30;;;;;;;26.17;12.93;;;9.70;99.90;;;;;;5034862;28;20152;-36
2023/04/29 00:28:00;;;;;;;21.90;13.23;;;9.70;99.90;;;;;;5032057;28;20469;-36
2023/04/29 00:30:29;;;;;;;24.13;12.88;;;9.70;99.90;;;;;;5034726;28;20052;-36
2023/04/29 00:32:55;;;;;;;24.10;13.02;;;9.70;99.90;;;;;;5047988;28;20045;-36
2023/04/29 00:35:21;;;;;;;24.08;13.45;;;9.70;99.90;;;;;;5021985;28;20070;-36
2023/04/29 00:37:47;;;;;;;21.70;12.07;;;9.70;99.90;;;;;;5037062;28;20053;-37
2023/04/29 00:40:13;;;;;;;22.33;11.85;;;9.70;99.90;;;;;;5039902;28;20067;-37
2023/04/29 00:42:40;;;;;;;24.02;12.55;;;9.70;99.90;;;;;;5042456;28;20107;-37
2023/04/29 00:45:07;;;;;;;23.90;14.05;;;9.70;99.90;;;;;;5037138;28;20170;-36
2023/04/29 00:47:32;;;;;;;24.55;13.30;;;9.70;99.90;;;;;;5029539;28;20056;-36
2023/04/29 00:49:58;;;;;;;19.25;12.02;;;9.70;99.90;;;;;;5037033;28;20052;-37
2023/04/29 00:52:26;;;;;;;24.25;13.15;;;9.60;99.90;;;;;;5034066;28;20461;-36
2023/04/29 00:54:51;;;;;;;22.08;11.80;;;9.60;99.90;;;;;;5049572;28;20084;-37
2023/04/29 00:57:18;;;;;;;22.45;12.68;;;9.60;99.90;;;;;;5045325;28;21838;-36
2023/04/29 00:59:45;;;;;;;20.65;11.98;;;9.60;99.90;;;;;;5036364;28;20057;-36
2023/04/29 01:02:10;;;;;;;20.27;11.93;;;9.60;99.90;;;;;;5031716;28;20132;-36
2023/04/29 01:04:36;;;;;;;17.35;10.93;;;9.60;99.90;;;;;;5049271;28;20124;-36
2023/04/29 01:07:08;;;;;;;21.98;11.70;;;9.60;99.90;;;;;;5034530;28;20056;-36
2023/04/29 01:09:55;;;;;;;21.80;12.48;;;9.60;99.90;;;;;;5038646;28;20104;-36
2023/04/29 01:12:32;;;;;;;22.38;11.82;;;9.60;99.90;;;;;;5052885;28;20055;-36
2023/04/29 01:15:26;;;;;;;16.92;10.50;;;9.60;99.90;;;;;;5044042;28;20514;-36
2023/04/29 01:18:20;;;;;;;16.98;10.77;;;9.60;99.90;;;;;;5018464;28;20045;-36
2023/04/29 01:20:46;;;;;;;23.25;12.63;;;9.60;99.90;;;;;;5033729;28;20542;-36
2023/04/29 01:23:12;;;;;;;19.70;11.15;;;9.50;99.90;;;;;;5046311;28;20130;-36
2023/04/29 01:25:38;;;;;;;21.17;12.25;;;9.50;99.90;;;;;;5040478;28;20126;-36
2023/04/29 01:28:22;;;;;;;19.83;11.45;;;9.60;99.90;;;;;;5039206;28;20124;-36
2023/04/29 01:30:52;;;;;;;21.58;11.77;;;9.50;99.90;;;;;;5049144;28;20517;-36
2023/04/29 01:33:39;;;;;;;20.48;11.52;;;9.50;99.90;;;;;;5033139;28;20051;-36
2023/04/29 01:36:26;;;;;;;23.20;11.90;;;9.50;99.90;;;;;;5041479;28;20482;-36
2023/04/29 01:39:06;;;;;;;18.58;11.38;;;9.50;99.90;;;;;;5041716;28;20048;-36
2023/04/29 01:41:51;;;;;;;21.45;11.23;;;9.50;99.90;;;;;;5045964;28;20049;-36
2023/04/29 01:44:21;;;;;;;19.92;10.65;;;9.50;99.90;;;;;;5032730;28;20053;-36
2023/04/29 01:46:50;;;;;;;17.92;11.00;;;9.50;99.90;;;;;;5033037;28;20127;-36
2023/04/29 01:49:20;;;;;;;18.00;10.70;;;9.50;99.90;;;;;;5030250;28;20121;-36
2023/04/29 01:51:45;;;;;;;19.73;11.15;;;9.50;99.90;;;;;;5032830;28;20415;-36
2023/04/29 01:54:11;;;;;;;20.08;11.13;;;9.50;99.90;;;;;;5041620;28;20055;-36
2023/04/29 01:56:37;;;;;;;24.17;11.00;;;9.50;99.90;;;;;;5046634;28;20053;-36
2023/04/29 01:59:03;;;;;;;19.25;10.93;;;9.40;99.90;;;;;;5031928;28;20068;-35
2023/04/29 02:01:29;;;;;;;21.60;11.77;;;9.50;99.90;;;;;;5039317;28;20839;-36
2023/04/29 02:03:54;;;;;;;20.92;11.05;;;9.40;99.90;;;;;;5040420;28;20053;-35
2023/04/29 02:06:20;;;;;;;21.80;11.27;;;9.40;99.90;;;;;;5040699;28;20123;-36
2023/04/29 02:08:45;;;;;;;19.20;11.05;;;9.40;99.90;;;;;;5039392;28;20110;-36
2023/04/29 02:11:11;;;;;;;20.25;10.98;;;9.40;99.90;;;;;;5041111;28;20060;-36
2023/04/29 02:13:37;;;;;;;20.00;12.00;;;9.40;99.90;;;;;;5032477;28;20060;-35
2023/04/29 02:16:13;;;;;;;25.88;12.43;;;9.40;99.90;;;;;;5040250;28;20046;-35
2023/04/29 02:18:39;;;;;;;18.95;10.80;;;9.40;99.90;;;;;;5037651;28;20118;-36
2023/04/29 02:21:06;;;;;;;18.98;10.25;;;9.40;99.90;;;;;;5048930;28;20108;-35
2023/04/29 02:23:32;;;;;;;19.60;11.52;;;9.40;99.90;;;;;;5031946;28;20041;-36
2023/04/29 02:25:58;;;;;;;21.00;10.43;;;9.40;99.90;;;;;;5031292;28;20046;-36
2023/04/29 02:28:24;;;;;;;20.27;11.80;;;9.40;99.90;;;;;;5036086;28;20052;-36
2023/04/29 02:30:50;;;;;;;16.38;10.48;;;9.40;99.90;;;;;;5044074;28;20586;-36
2023/04/29 02:33:17;;;;;;;19.00;10.93;;;9.40;99.90;;;;;;5050414;28;20052;-36
2023/04/29 02:35:43;;;;;;;17.70;10.82;;;9.40;99.90;;;;;;5036944;28;20496;-36
2023/04/29 02:38:10;;;;;;;21.73;10.88;;;9.40;99.90;;;;;;5032669;28;20046;-36
2023/04/29 02:40:46;;;;;;;23.25;12.23;;;9.40;99.90;;;;;;5038593;28;20060;-35
2023/04/29 02:43:12;;;;;;;23.98;12.10;;;9.40;99.90;;;;;;5034174;28;20045;-36
2023/04/29 02:45:38;;;;;;;21.90;10.65;;;9.40;99.90;;;;;;5051446;28;20106;-36
2023/04/29 02:48:04;;;;;;;21.58;9.70;;;9.40;99.90;;;;;;5033286;28;20053;-35
2023/04/29 02:50:30;;;;;;;21.75;10.38;;;9.40;99.90;;;;;;5040116;28;20057;-37
2023/04/29 02:52:56;;;;;;;24.05;12.07;;;9.40;99.90;;;;;;5031215;28;20520;-35
2023/04/29 02:55:22;;;;;;;21.63;11.45;;;9.30;99.90;;;;;;5041932;28;20057;-35
2023/04/29 02:57:48;;;;;;;19.83;11.10;;;9.40;99.90;;;;;;5051534;28;20048;-35
2023/04/29 03:00:13;;;;;;;21.33;10.40;;;9.30;99.90;;;;;;5029974;28;20503;-37
2023/04/29 03:02:39;;;;;;;21.05;11.45;;;9.30;99.90;;;;;;5031614;28;20403;-35
2023/04/29 03:05:05;;;;;;;23.38;11.73;;;9.30;99.90;;;;;;5030525;28;20482;-36
2023/04/29 03:07:31;;;;;;;18.70;11.02;;;9.30;99.90;;;;;;5023892;28;20061;-35
2023/04/29 03:09:57;;;;;;;21.92;11.02;;;9.30;99.90;;;;;;5030817;28;20491;-35
2023/04/29 03:12:23;;;;;;;22.85;11.57;;;9.30;99.90;;;;;;5033248;28;20049;-35
2023/04/29 03:14:48;;;;;;;19.48;11.38;;;9.20;99.90;;;;;;5036601;28;20056;-35
2023/04/29 03:17:14;;;;;;;22.00;10.88;;;9.20;99.90;;;;;;5030388;28;20055;-35
2023/04/29 03:19:40;;;;;;;24.08;12.68;;;9.20;99.90;;;;;;5036378;28;20414;-35
2023/04/29 03:22:09;;;;;;;19.05;10.43;;;9.20;99.90;;;;;;5034026;28;20396;-35
2023/04/29 03:24:34;;;;;;;20.33;11.85;;;9.20;99.90;;;;;;5046202;28;20157;-35
2023/04/29 03:27:00;;;;;;;24.23;9.98;;;9.20;99.90;;;;;;5039166;28;20044;-35
2023/04/29 03:29:26;;;;;;;20.67;10.88;;;9.10;99.90;;;;;;5029551;28;20418;-36
2023/04/29 03:31:53;;;;;;;17.90;10.23;;;9.10;99.90;;;;;;5037404;28;20202;-36
2023/04/29 03:34:19;;;;;;;18.88;9.95;;;9.00;99.90;;;;;;5033767;28;20049;-35
2023/04/29 03:36:44;;;;;;;19.30;10.40;;;9.00;99.90;;;;;;5050327;28;20128;-36
2023/04/29 03:39:11;;;;;;;20.83;9.98;;;8.90;99.90;;;;;;5040866;28;20084;-36
2023/04/29 03:41:37;;;;;;;16.70;9.88;;;8.90;99.90;;;;;;5030376;28;20045;-36
2023/04/29 03:44:03;;;;;;;16.05;9.90;;;8.90;99.90;;;;;;5030820;28;20411;-36
2023/04/29 03:46:29;;;;;;;17.05;10.00;;;8.90;99.90;;;;;;5045100;28;20415;-36
2023/04/29 03:48:55;;;;;;;17.48;9.30;;;8.90;99.90;;;;;;5028973;28;20122;-36
2023/04/29 03:51:25;;;;;;;18.15;10.27;;;8.90;99.90;;;;;;5030119;28;20184;-35
2023/04/29 03:53:52;;;;;;;22.38;10.85;;;8.90;99.90;;;;;;5030107;28;20058;-37
2023/04/29 03:56:18;;;;;;;28.00;10.55;;;8.90;99.90;;;;;;5031588;28;20049;-36
2023/04/29 03:58:45;;;;;;;17.45;10.07;;;8.90;99.90;;;;;;5050059;28;20044;-36
2023/04/29 04:01:11;;;;;;;17.58;9.27;;;8.90;99.90;;;;;;5048884;28;20103;-36
2023/04/29 04:03:37;;;;;;;15.10;10.05;;;8.90;99.90;;;;;;5030451;28;20175;-36
2023/04/29 04:06:02;;;;;;;20.33;11.32;;;8.90;99.90;;;;;;5030205;28;20537;-36
2023/04/29 04:08:28;;;;;;;19.77;10.85;;;8.90;99.90;;;;;;5040203;28;20127;-36
2023/04/29 04:10:54;;;;;;;20.90;10.35;;;8.90;99.90;;;;;;5050077;28;20037;-36
2023/04/29 04:13:20;;;;;;;19.75;10.80;;;8.90;99.90;;;;;;5049271;28;20036;-36
2023/04/29 04:15:50;;;;;;;24.60;11.57;;;8.90;99.90;;;;;;5036415;28;20061;-36
2023/04/29 04:18:16;;;;;;;20.80;10.88;;;8.90;99.90;;;;;;5046632;28;20056;-36
2023/04/29 04:20:42;;;;;;;21.05;11.48;;;8.90;99.90;;;;;;5045301;28;20049;-36
2023/04/29 04:23:07;;;;;;;20.40;11.73;;;8.90;99.90;;;;;;5029949;28;20056;-36
2023/04/29 04:25:33;;;;;;;20.55;10.75;;;8.90;99.90;;;;;;5029014;28;20060;-36
2023/04/29 04:27:59;;;;;;;22.63;11.90;;;8.90;99.90;;;;;;5038010;28;20096;-36
2023/04/29 04:30:24;;;;;;;26.00;11.40;;;8.90;99.90;;;;;;5027624;28;20046;-36
2023/04/29 04:32:50;;;;;;;29.38;12.38;;;8.90;99.90;;;;;;5035180;28;20494;-36
2023/04/29 04:35:16;;;;;;;23.60;11.50;;;8.90;99.90;;;;;;5031601;28;20404;-36
2023/04/29 04:37:41;;;;;;;19.73;10.07;;;8.90;99.90;;;;;;5029240;28;20118;-36
2023/04/29 04:40:08;;;;;;;20.58;10.88;;;8.90;99.90;;;;;;5029170;28;20049;-36
2023/04/29 04:42:33;;;;;;;19.95;10.43;;;8.90;99.90;;;;;;5031986;28;20053;-36
2023/04/29 04:44:59;;;;;;;23.83;11.73;;;8.90;99.90;;;;;;5042997;28;20072;-36
2023/04/29 04:47:25;;;;;;;26.05;11.50;;;8.90;99.90;;;;;;5030634;28;20137;-36
2023/04/29 04:49:51;;;;;;;20.23;10.63;;;8.90;99.90;;;;;;5049466;28;20083;-36
2023/04/29 04:52:22;;;;;;;24.83;11.80;;;8.90;99.90;;;;;;5032359;28;20107;-36
2023/04/29 04:54:47;;;;;;;21.40;10.13;;;9.00;99.90;;;;;;5048910;28;20080;-36
2023/04/29 04:57:13;;;;;;;23.95;12.30;;;9.00;99.90;;;;;;5048645;28;20546;-35
2023/04/29 04:59:39;;;;;;;21.17;10.57;;;9.00;99.90;;;;;;5045663;28;20087;-36
2023/04/29 05:02:05;;;;;;;20.35;11.82;;;9.00;99.90;;;;;;5036066;28;20052;-36
2023/04/29 05:04:30;;;;;;;23.08;10.88;;;9.00;99.90;;;;;;5037730;28;20124;-36
2023/04/29 05:06:56;;;;;;;19.63;10.02;;;9.00;99.90;;;;;;5037737;28;20058;-36
2023/04/29 05:09:22;;;;;;;24.65;11.23;;;9.00;99.90;;;;;;5028581;28;20046;-36
2023/04/29 05:11:47;;;;;;;19.85;10.13;;;9.10;99.90;;;;;;5029282;28;20129;-36
2023/04/29 05:14:13;;;;;;;18.95;10.30;;;9.10;99.90;;;;;;5037643;28;20049;-36
2023/04/29 05:16:39;;;;;;;21.63;9.65;;;9.10;99.90;;;;;;5028624;28;20415;-36
2023/04/29 05:19:04;;;;;;;19.42;9.30;;;9.10;99.90;;;;;;5037480;28;20050;-36
2023/04/29 05:21:30;;;;;;;20.33;11.15;;;9.10;99.90;;;;;;5028756;28;20049;-36
2023/04/29 05:23:56;;;;;;;22.55;9.40;;;9.10;99.90;;;;;;5029227;28;20053;-36
2023/04/29 05:26:22;;;;;;;23.42;10.30;;;9.10;99.90;;;;;;5029478;28;20128;-36
2023/04/29 05:28:48;;;;;;;19.10;9.27;;;9.20;99.90;;;;;;5036591;28;20538;-36
2023/04/29 05:31:13;;;;;;;20.25;9.48;;;9.20;99.90;;;;;;5029146;28;20049;-36
2023/04/29 05:33:39;;;;;;;14.65;7.93;;;9.20;99.90;;;;;;5036658;28;20049;-36
2023/04/29 05:36:05;;;;;;;18.92;9.35;;;9.20;99.90;;;;;;5042648;28;20041;-36
2023/04/29 05:38:31;;;;;;;17.50;9.10;;;9.30;99.90;;;;;;5029928;28;20055;-36
2023/04/29 05:40:57;;;;;;;19.15;8.82;;;9.30;99.90;;;;;;5042659;28;20049;-36
2023/04/29 05:43:23;;;;;;;13.45;7.00;;;9.30;99.90;;;;;;5047562;28;20067;-36
2023/04/29 05:45:49;;;;;;;17.25;9.20;;;9.30;99.90;;;;;;5029096;28;20128;-36
2023/04/29 05:48:15;;;;;;;18.35;8.57;;;9.30;99.90;;;;;;5028629;28;20490;-36
2023/04/29 05:50:41;;;;;;;19.48;8.88;;;9.40;99.90;;;;;;5031670;28;20555;-36
2023/04/29 05:53:07;;;;;;;21.02;9.27;;;9.40;99.90;;;;;;5035341;28;20073;-36
2023/04/29 05:55:32;;;;;;;14.55;8.00;;;9.40;99.90;;;;;;5039969;28;20076;-36
2023/04/29 05:57:58;;;;;;;16.13;8.07;;;9.40;99.90;;;;;;5032674;28;20289;-37
2023/04/29 06:00:24;;;;;;;13.55;7.18;;;9.50;99.90;;;;;;5040198;28;20052;-36
2023/04/29 06:02:50;;;;;;;17.02;8.93;;;9.50;99.90;;;;;;5036919;28;20048;-36
2023/04/29 06:05:15;;;;;;;15.77;8.25;;;9.50;99.90;;;;;;5044439;28;20411;-36
2023/04/29 06:07:41;;;;;;;15.80;8.07;;;9.60;99.90;;;;;;5039654;28;20048;-36
2023/04/29 06:10:08;;;;;;;20.58;7.10;;;9.60;99.90;;;;;;5032027;28;20507;-36
2023/04/29 06:12:34;;;;;;;14.73;7.10;;;9.70;99.90;;;;;;5039957;28;20049;-36
2023/04/29 06:15:00;;;;;;;11.60;6.95;;;9.70;99.90;;;;;;5032302;28;20110;-36
2023/04/29 06:17:28;;;;;;;14.23;6.28;;;9.70;99.90;;;;;;5048503;28;20056;-36
2023/04/29 06:19:54;;;;;;;12.20;5.93;;;9.80;99.90;;;;;;5039424;28;20045;-37
2023/04/29 06:22:20;;;;;;;11.80;5.25;;;9.90;99.90;;;;;;5030929;28;20049;-36
2023/04/29 06:24:48;;;;;;;11.57;6.43;;;9.90;99.90;;;;;;5034601;28;20089;-36
2023/04/29 06:27:14;;;;;;;12.73;5.05;;;10.00;99.90;;;;;;5036918;28;20049;-36
2023/04/29 06:29:41;;;;;;;10.43;4.68;;;10.00;99.90;;;;;;5047874;28;20056;-36
2023/04/29 06:32:07;;;;;;;9.38;4.90;;;10.00;99.90;;;;;;5032136;28;20504;-36
2023/04/29 06:34:32;;;;;;;12.77;5.93;;;10.10;99.90;;;;;;5031956;28;20057;-36
2023/04/29 06:36:58;;;;;;;9.35;4.90;;;10.10;99.90;;;;;;5047205;28;20044;-37
2023/04/29 06:39:24;;;;;;;10.57;4.93;;;10.20;99.90;;;;;;5031502;28;20049;-36
2023/04/29 06:41:50;;;;;;;9.70;4.25;;;10.20;99.90;;;;;;5031674;28;20057;-36
2023/04/29 06:44:17;;;;;;;10.65;4.55;;;10.20;99.90;;;;;;5039308;28;20049;-36
2023/04/29 06:46:43;;;;;;;13.18;5.63;;;10.20;99.90;;;;;;5034193;28;20057;-36
2023/04/29 06:49:09;;;;;;;9.10;4.88;;;10.30;99.90;;;;;;5042615;28;20048;-36
2023/04/29 06:51:38;;;;;;;8.27;4.40;;;10.30;99.90;;;;;;5041534;28;20128;-36
2023/04/29 06:54:04;;;;;;;9.68;4.82;;;10.40;99.90;;;;;;5044749;28;20049;-36
2023/04/29 06:56:29;;;;;;;8.45;4.28;;;10.50;99.90;;;;;;5033971;28;20103;-36
2023/04/29 06:58:55;;;;;;;10.23;5.40;;;10.50;99.90;;;;;;5031323;28;20057;-37
2023/04/29 07:01:21;;;;;;;8.13;3.85;;;10.50;99.90;;;;;;5031308;28;20047;-36
2023/04/29 07:03:46;;;;;;;8.23;4.50;;;10.60;99.90;;;;;;5030396;28;20053;-36
2023/04/29 07:06:12;;;;;;;12.35;4.70;;;10.70;99.90;;;;;;5031036;28;20496;-36
2023/04/29 07:08:38;;;;;;;7.70;4.38;;;10.70;99.90;;;;;;5030712;28;20048;-36
2023/04/29 07:11:04;;;;;;;14.52;4.45;;;10.70;99.90;;;;;;5043663;28;20052;-37
2023/04/29 07:13:29;;;;;;;8.00;4.45;;;10.70;99.90;;;;;;5034125;28;20099;-36
2023/04/29 07:15:55;;;;;;;9.18;3.90;;;10.70;99.90;;;;;;5030860;28;20060;-35
2023/04/29 07:18:21;;;;;;;8.05;3.45;;;10.80;99.90;;;;;;5039538;28;20133;-37
2023/04/29 07:20:47;;;;;;;9.90;5.55;;;10.80;99.90;;;;;;5030419;28;20118;-35
2023/04/29 07:23:15;;;;;;;8.93;3.80;;;10.80;99.90;;;;;;5030985;28;20049;-37
2023/04/29 07:25:41;;;;;;;10.20;4.30;;;10.80;99.90;;;;;;5031901;28;20568;-37
2023/04/29 07:28:08;;;;;;;10.60;4.05;;;10.80;99.90;;;;;;5045877;28;20061;-38
2023/04/29 07:30:33;;;;;;;10.13;4.30;;;10.90;99.90;;;;;;5039180;28;20045;-35
2023/04/29 07:32:59;;;;;;;6.68;3.90;;;10.90;99.90;;;;;;5050744;28;20060;-37
2023/04/29 07:35:25;;;;;;;9.43;4.40;;;11.00;99.90;;;;;;5035819;28;20054;-35
2023/04/29 07:37:51;;;;;;;8.38;4.13;;;11.00;99.90;;;;;;5030422;28;20046;-36
2023/04/29 07:40:16;;;;;;;16.05;4.50;;;11.00;99.90;;;;;;5038570;28;20053;-36
2023/04/29 07:42:42;;;;;;;8.73;3.97;;;11.10;99.90;;;;;;5031538;28;20058;-36
2023/04/29 07:45:08;;;;;;;8.00;3.90;;;11.10;99.90;;;;;;5037424;28;20061;-35
2023/04/29 07:47:34;;;;;;;10.20;3.72;;;11.20;99.90;;;;;;5046680;28;20592;-36
2023/04/29 07:50:00;;;;;;;10.50;3.95;;;11.30;99.90;;;;;;5034128;28;20081;-36
2023/04/29 07:52:26;;;;;;;8.13;4.32;;;11.40;99.90;;;;;;5043260;28;20053;-36
2023/04/29 07:54:52;;;;;;;9.48;4.20;;;11.40;99.90;;;;;;5029319;28;20053;-36
2023/04/29 07:57:17;;;;;;;9.73;3.85;;;11.50;99.90;;;;;;5030205;28;20526;-36
2023/04/29 07:59:43;;;;;;;8.93;3.88;;;11.60;99.90;;;;;;5029863;28;20133;-36
2023/04/29 08:02:08;;;;;;;9.73;3.85;;;11.70;99.90;;;;;;5035082;28;20111;-36
2023/04/29 08:04:39;;;;;;;8.20;3.58;;;11.70;99.90;;;;;;5041550;28;20057;-36
2023/04/29 08:07:05;;;;;;;9.05;4.53;;;11.80;99.90;;;;;;5036249;28;20136;-36
2023/04/29 08:09:30;;;;;;;7.18;4.07;;;11.90;99.90;;;;;;5030076;28;20478;-37
2023/04/29 08:11:56;;;;;;;10.27;4.40;;;12.00;99.90;;;;;;5044808;28;20060;-36
2023/04/29 08:14:21;;;;;;;9.25;4.35;;;12.00;99.90;;;;;;5030038;28;20511;-36
2023/04/29 08:16:47;;;;;;;9.50;4.65;;;12.10;99.90;;;;;;5028998;28;20060;-36
2023/04/29 08:19:13;;;;;;;6.15;3.53;;;12.20;99.90;;;;;;5030405;28;20057;-37
2023/04/29 08:21:38;;;;;;;11.25;4.05;;;12.30;99.90;;;;;;5045675;28;20159;-36
2023/04/29 08:24:04;;;;;;;7.85;3.92;;;12.30;99.90;;;;;;5038157;28;20060;-36
2023/04/29 08:26:30;;;;;;;6.18;3.65;;;12.40;99.90;;;;;;5037601;28;20140;-36
2023/04/29 08:28:56;;;;;;;9.75;4.10;;;12.50;99.90;;;;;;5029913;28;20041;-37
2023/04/29 08:31:21;;;;;;;8.63;4.63;;;12.60;99.90;;;;;;5036348;28;20132;-36
2023/04/29 08:33:48;;;;;;;10.50;4.93;;;12.60;99.90;;;;;;5029153;28;20056;-37
2023/04/29 08:36:13;;;;;;;7.93;4.00;;;12.70;99.90;;;;;;5038298;28;20053;-36
2023/04/29 08:38:39;;;;;;;7.65;3.85;;;12.80;99.90;;;;;;5029653;28;20127;-37
2023/04/29 08:41:08;;;;;;;7.18;4.13;;;12.80;99.90;;;;;;5029323;28;20045;-37
2023/04/29 08:43:39;;;;;;;7.40;4.18;;;13.00;99.90;;;;;;5029288;28;20045;-37
2023/04/29 08:46:06;;;;;;;9.77;4.38;;;13.10;99.90;;;;;;5029093;28;20064;-37
2023/04/29 08:48:33;;;;;;;8.18;3.78;;;13.20;99.90;;;;;;5029902;28;20045;-37
2023/04/29 08:51:00;;;;;;;8.35;4.20;;;13.20;99.90;;;;;;5028399;28;20041;-37
2023/04/29 08:53:26;;;;;;;7.22;3.90;;;13.20;99.90;;;;;;5029860;28;20099;-37
2023/04/29 08:55:53;;;;;;;8.90;3.88;;;13.30;99.90;;;;;;5028548;28;20499;-37
2023/04/29 08:58:19;;;;;;;10.75;4.30;;;13.20;99.90;;;;;;5029477;28;20061;-37
2023/04/29 09:00:45;;;;;;;7.95;3.38;;;13.20;99.90;;;;;;5029262;28;20431;-36
2023/04/29 09:03:25;;;;;;;8.43;3.90;;;13.10;99.90;;;;;;5037082;28;20474;-37
2023/04/29 09:05:55;;;;;;;7.90;3.60;;;13.20;99.90;;;;;;5028495;28;20053;-37
2023/04/29 09:08:22;;;;;;;10.43;3.90;;;13.30;99.90;;;;;;5034311;28;20056;-37
2023/04/29 09:10:49;;;;;;;5.95;3.35;;;13.40;99.90;;;;;;5031954;28;20503;-36
2023/04/29 09:13:29;;;;;;;8.35;3.63;;;13.30;99.90;;;;;;5025714;28;20041;-36
2023/04/29 09:15:55;;;;;;;6.88;3.60;;;13.40;99.90;;;;;;5031986;28;20061;-36
2023/04/29 09:18:47;;;;;;;8.85;3.70;;;13.50;99.90;;;;;;5044987;28;20049;-37
2023/04/29 09:21:13;;;;;;;8.23;4.10;;;13.60;99.90;;;;;;5039650;28;20095;-37
2023/04/29 09:23:39;;;;;;;10.77;4.28;;;13.80;99.90;;;;;;5049491;28;20123;-37
2023/04/29 09:26:05;;;;;;;10.35;4.18;;;14.00;99.90;;;;;;5047570;28;20543;-36
2023/04/29 09:28:30;;;;;;;6.45;3.30;;;14.10;99.90;;;;;;5037488;28;20056;-37
2023/04/29 09:30:56;;;;;;;6.38;3.83;;;14.20;99.90;;;;;;5040795;28;20148;-38
2023/04/29 09:33:22;;;;;;;6.45;3.58;;;14.10;99.90;;;;;;5036178;28;20099;-35
2023/04/29 09:35:48;;;;;;;9.07;3.47;;;14.10;99.90;;;;;;5036772;28;20057;-36
2023/04/29 09:38:15;;;;;;;6.53;3.00;;;14.20;99.90;;;;;;5032196;28;20064;-36
2023/04/29 09:40:42;;;;;;;6.35;3.40;;;14.40;99.90;;;;;;5039960;28;20579;-36
2023/04/29 09:43:17;;;;;;;8.30;3.90;;;14.60;99.90;;;;;;5041760;28;20083;-36
2023/04/29 09:45:46;;;;;;;8.05;3.95;;;14.80;99.90;;;;;;5032767;28;20049;-36
2023/04/29 09:48:13;;;;;;;11.30;4.25;;;14.60;99.90;;;;;;5043174;28;20060;-36
2023/04/29 09:50:41;;;;;;;7.35;3.65;;;14.40;99.90;;;;;;5052844;28;20424;-35
2023/04/29 09:53:09;;;;;;;9.77;3.70;;;14.20;99.90;;;;;;5042146;28;20061;-36
2023/04/29 09:55:36;;;;;;;6.63;3.83;;;14.10;99.90;;;;;;5038522;28;20053;-36
2023/04/29 09:58:01;;;;;;;5.05;3.47;;;14.10;99.90;;;;;;5034655;28;20045;-35
2023/04/29 10:00:32;;;;;;;10.32;3.80;;;14.20;99.90;;;;;;5032246;28;20389;-37
2023/04/29 10:03:02;;;;;;;7.38;3.97;;;14.30;99.90;;;;;;5032309;28;20499;-37
2023/04/29 10:05:29;;;;;;;6.68;3.38;;;14.40;99.90;;;;;;5040797;28;20550;-36
2023/04/29 10:07:58;;;;;;;7.88;3.03;;;14.30;99.90;;;;;;5031785;28;20049;-36
2023/04/29 10:10:26;;;;;;;5.38;2.70;;;14.30;99.90;;;;;;5052024;28;20064;-36
2023/04/29 10:12:53;;;;;;;8.57;3.63;;;14.50;99.90;;;;;;5052017;28;20118;-36
2023/04/29 10:15:31;;;;;;;7.00;3.20;;;14.70;99.90;;;;;;5039746;28;20076;-36
2023/04/29 10:18:06;;;;;;;5.32;2.97;;;14.60;99.90;;;;;;5025546;28;20045;-35
2023/04/29 10:20:33;;;;;;;5.85;3.40;;;14.50;99.90;;;;;;5032492;28;20494;-36
2023/04/29 10:23:00;;;;;;;7.03;3.78;;;14.40;99.90;;;;;;5031418;28;20049;-36
2023/04/29 10:25:27;;;;;;;7.90;3.47;;;14.50;99.90;;;;;;5032267;28;20525;-35
2023/04/29 10:27:54;;;;;;;8.15;3.35;;;14.70;99.90;;;;;;5024797;28;20491;-36
2023/04/29 10:30:21;;;;;;;5.63;2.92;;;14.90;99.90;;;;;;5031735;28;20057;-36
2023/04/29 10:32:49;;;;;;;7.10;2.85;;;15.00;99.90;;;;;;5038934;28;20059;-36
2023/04/29 10:35:21;;;;;;;5.55;3.08;;;15.20;99.90;;;;;;5064359;28;20517;-36
2023/04/29 10:37:47;;;;;;;6.97;3.17;;;15.30;99.90;;;;;;5038553;28;20136;-36
2023/04/29 10:40:17;;;;;;;6.03;3.10;;;15.40;99.90;;;;;;5034164;28;20056;-36
2023/04/29 10:42:48;;;;;;;5.93;3.65;;;15.50;99.90;;;;;;5036984;28;20049;-36
2023/04/29 10:45:22;;;;;;;8.02;3.28;;;15.60;99.90;;;;;;5039385;28;20065;-36
2023/04/29 10:48:04;;;;;;;6.15;3.35;;;15.70;99.90;;;;;;5046612;28;20103;-37
2023/04/29 10:50:45;;;;;;;7.20;3.65;;;15.90;99.90;;;;;;5039702;28;20065;-36
2023/04/29 10:53:11;;;;;;;6.53;3.22;;;15.90;99.90;;;;;;5033624;28;20110;-37
2023/04/29 10:55:37;;;;;;;4.47;2.33;;;15.90;99.90;;;;;;5039202;28;20539;-36
2023/04/29 10:58:35;;;;;;;5.90;2.95;;;15.90;99.90;;;;;;5024240;28;20050;-36
2023/04/29 11:01:01;;;;;;;6.43;3.15;;;16.00;99.90;;;;;;5049547;28;20522;-36
2023/04/29 11:03:46;;;;;;;6.22;3.03;;;16.00;99.90;;;;;;5060947;28;20053;-37
2023/04/29 11:06:12;;;;;;;4.78;2.47;;;16.00;99.90;;;;;;5050364;28;20588;-36
2023/04/29 11:08:42;;;;;;;5.25;2.33;;;16.00;99.90;;;;;;5051447;28;20072;-36
2023/04/29 11:11:08;;;;;;;5.80;2.47;;;16.10;99.90;;;;;;5031155;28;20147;-36
2023/04/29 11:13:39;;;;;;;6.15;2.80;;;16.20;99.90;;;;;;5031018;28;20049;-37
2023/04/29 11:16:06;;;;;;;5.72;2.47;;;16.20;99.90;;;;;;5038454;28;20056;-36
2023/04/29 11:18:35;;;;;;;5.22;2.72;;;16.30;99.90;;;;;;5052389;28;20061;-36
2023/04/29 11:21:07;;;;;;;5.65;2.67;;;16.30;99.90;;;;;;5040437;28;20057;-35
2023/04/29 11:23:37;;;;;;;5.43;2.57;;;16.40;99.90;;;;;;5039410;28;20110;-36
2023/04/29 11:26:03;;;;;;;5.25;2.63;;;16.50;99.90;;;;;;5030215;28;20300;-36
2023/04/29 11:28:30;;;;;;;5.60;2.50;;;16.50;99.90;;;;;;5030990;28;20056;-36
2023/04/29 11:30:57;;;;;;;6.07;2.75;;;16.60;99.90;;;;;;5039400;28;20042;-36
2023/04/29 11:33:26;;;;;;;3.92;1.90;;;16.60;99.90;;;;;;5045889;28;20053;-36
2023/04/29 11:35:55;;;;;;;5.45;2.38;;;16.70;99.90;;;;;;5030341;28;20057;-36
2023/04/29 11:38:28;;;;;;;3.40;1.75;;;16.70;99.90;;;;;;5034830;28;20045;-36
2023/04/29 11:40:54;;;;;;;;;;;16.90;99.90;;;;;;5033772;28;20050;-36
2023/04/29 11:43:20;;;;;;;6.65;2.75;;;16.90;99.90;;;;;;5034689;28;19946;-36
2023/04/29 11:45:47;;;;;;;7.05;2.65;;;16.90;99.90;;;;;;5034746;28;20465;-36
2023/04/29 11:48:19;;;;;;;4.50;2.30;;;16.90;99.90;;;;;;5046097;28;20054;-36
2023/04/29 11:50:50;;;;;;;6.53;2.63;;;17.00;99.90;;;;;;5030040;28;20060;-36
2023/04/29 11:53:18;;;;;;;6.78;2.63;;;17.10;99.90;;;;;;5029838;28;20099;-36
2023/04/29 11:55:45;;;;;;;6.80;3.05;;;17.10;99.90;;;;;;5038652;28;20082;-36
2023/04/29 11:58:11;;;;;;;5.25;2.92;;;17.20;99.90;;;;;;5039951;28;20556;-36
2023/04/29 12:00:37;;;;;;;7.57;2.83;;;17.40;99.90;;;;;;5036221;28;20053;-36
2023/04/29 12:03:30;;;;;;;5.30;3.05;;;17.50;99.90;;;;;;5029761;28;20053;-36
2023/04/29 12:05:56;;;;;;;5.70;2.47;;;17.40;99.90;;;;;;5040089;28;20057;-36
2023/04/29 12:08:24;;;;;;;6.03;2.53;;;17.50;99.90;;;;;;5049876;28;20491;-36
2023/04/29 12:10:55;;;;;;;5.55;2.40;;;17.60;99.90;;;;;;5033965;28;20054;-36
2023/04/29 12:13:23;;;;;;;4.65;2.35;;;17.80;99.90;;;;;;5037716;28;20187;-36
2023/04/29 12:15:50;;;;;;;7.63;2.55;;;17.70;99.90;;;;;;5030011;28;20060;-36
2023/04/29 12:18:17;;;;;;;4.13;2.60;;;17.80;99.90;;;;;;5026443;28;20107;-36
2023/04/29 12:20:44;;;;;;;4.60;2.20;;;17.80;99.90;;;;;;5029376;28;20609;-37
2023/04/29 12:23:13;;;;;;;8.10;2.67;;;18.00;99.90;;;;;;5047665;28;20049;-37
2023/04/29 12:25:41;;;;;;;4.45;2.15;;;18.30;99.90;;;;;;5029218;28;20048;-36
2023/04/29 12:28:13;;;;;;;4.70;2.30;;;18.60;99.90;;;;;;5028843;28;20046;-36
2023/04/29 12:30:39;;;;;;;8.52;2.97;;;18.80;99.90;;;;;;5030052;28;20049;-37
2023/04/29 12:33:08;;;;;;;4.88;2.40;;;18.80;99.90;;;;;;5027785;28;20511;-37
2023/04/29 12:35:34;;;;;;;4.65;2.15;;;18.70;99.90;;;;;;5029738;28;20487;-37
2023/04/29 12:38:01;;;;;;;5.20;2.83;;;18.70;99.90;;;;;;5045860;28;20037;-36
2023/04/29 12:40:27;;;;;;;6.03;2.08;;;19.00;99.90;;;;;;5031152;28;20132;-36
2023/04/29 12:42:53;;;;;;;5.57;1.95;;;18.90;99.90;;;;;;5038340;28;20526;-36
2023/04/29 12:45:33;;;;;;;7.13;2.33;;;18.70;99.90;;;;;;5029162;28;20041;-37